createdAt,value
2016-10-16T00:00:16.210Z,21.37
2016-10-16T00:00:56.796Z,21.38
2016-10-16T00:01:37.382Z,21.29
2016-10-16T00:02:17.966Z,21.34
2016-10-16T00:02:58.546Z,21.34
2016-10-16T00:03:39.131Z,21.28
2016-10-16T00:04:19.714Z,21.31
2016-10-16T00:05:00.292Z,21.31
2016-10-16T00:05:40.877Z,21.29
2016-10-16T00:06:21.462Z,21.32
2016-10-16T00:07:02.045Z,21.31
2016-10-16T00:07:42.624Z,21.24
2016-10-16T00:08:23.202Z,21.31
2016-10-16T00:09:03.785Z,21.32
2016-10-16T00:09:44.363Z,21.31
2016-10-16T00:10:24.955Z,21.27
2016-10-16T00:11:05.539Z,21.32
2016-10-16T00:11:46.121Z,21.29
2016-10-16T00:12:26.702Z,21.31
2016-10-16T00:13:07.285Z,21.34
2016-10-16T00:13:47.873Z,21.34
2016-10-16T00:14:28.453Z,21.35
2016-10-16T00:15:09.035Z,21.29
2016-10-16T00:15:49.621Z,21.29
2016-10-16T00:16:30.191Z,21.28
2016-10-16T00:17:10.777Z,21.28
2016-10-16T00:17:51.360Z,21.34
2016-10-16T00:18:31.942Z,21.28
2016-10-16T00:19:12.525Z,21.31
2016-10-16T00:19:53.105Z,21.31
2016-10-16T00:20:33.677Z,21.31
2016-10-16T00:21:14.257Z,21.32
2016-10-16T00:21:54.841Z,21.31
2016-10-16T00:22:35.423Z,21.32
2016-10-16T00:23:16.009Z,21.24
2016-10-16T00:23:56.608Z,21.27
2016-10-16T00:24:37.172Z,21.34
2016-10-16T00:25:17.756Z,21.34
2016-10-16T00:25:58.333Z,21.28
2016-10-16T00:26:38.910Z,21.34
2016-10-16T00:27:19.487Z,21.32
2016-10-16T00:28:00.070Z,21.32
2016-10-16T00:28:40.647Z,21.25
2016-10-16T00:29:21.226Z,21.32
2016-10-16T00:30:01.804Z,21.32
2016-10-16T00:30:42.386Z,21.34
2016-10-16T00:31:22.968Z,21.25
2016-10-16T00:32:03.538Z,21.32
2016-10-16T00:32:44.121Z,21.25
2016-10-16T00:33:24.698Z,21.34
2016-10-16T00:34:05.280Z,21.31
2016-10-16T00:34:45.860Z,21.19
2016-10-16T00:35:26.442Z,21.32
2016-10-16T00:36:07.022Z,21.31
2016-10-16T00:36:47.602Z,21.32
2016-10-16T00:37:28.186Z,21.32
2016-10-16T00:38:08.769Z,21.28
2016-10-16T00:38:49.352Z,21.31
2016-10-16T00:39:29.929Z,21.32
2016-10-16T00:40:10.514Z,21.28
2016-10-16T00:40:51.094Z,21.34
2016-10-16T00:41:31.676Z,21.28
2016-10-16T00:42:12.259Z,21.34
2016-10-16T00:42:52.844Z,21.28
2016-10-16T00:43:33.425Z,21.31
2016-10-16T00:44:14.005Z,21.31
2016-10-16T00:44:54.589Z,21.4
2016-10-16T00:45:35.174Z,21.35
2016-10-16T00:46:15.756Z,21.27
2016-10-16T00:46:56.338Z,21.34
2016-10-16T00:47:36.914Z,21.35
2016-10-16T00:48:17.497Z,21.31
2016-10-16T00:48:58.077Z,21.31
2016-10-16T00:49:38.660Z,21.31
2016-10-16T00:50:19.242Z,21.27
2016-10-16T00:50:59.825Z,21.28
2016-10-16T00:51:40.411Z,21.37
2016-10-16T00:52:20.990Z,21.28
2016-10-16T00:53:01.577Z,21.29
2016-10-16T00:53:42.157Z,21.31
2016-10-16T00:54:22.740Z,21.32
2016-10-16T00:55:03.320Z,21.28
2016-10-16T00:55:43.903Z,21.34
2016-10-16T00:56:24.483Z,21.4
2016-10-16T00:57:05.071Z,21.38
2016-10-16T00:57:45.654Z,21.4
2016-10-16T00:58:26.235Z,21.32
2016-10-16T00:59:06.817Z,21.35
2016-10-16T00:59:47.397Z,21.34
2016-10-16T01:00:27.975Z,21.32
2016-10-16T01:01:08.560Z,21.32
2016-10-16T01:01:49.135Z,21.42
2016-10-16T01:02:29.720Z,21.35
2016-10-16T01:03:10.305Z,21.34
2016-10-16T01:03:50.884Z,21.35
2016-10-16T01:04:31.466Z,21.37
2016-10-16T01:05:12.052Z,21.34
2016-10-16T01:05:52.634Z,21.4
2016-10-16T01:06:33.218Z,21.42
2016-10-16T01:07:13.797Z,21.37
2016-10-16T01:07:54.376Z,21.43
2016-10-16T01:08:34.955Z,21.34
2016-10-16T01:09:15.519Z,21.43
2016-10-16T01:09:56.096Z,21.4
2016-10-16T01:10:36.676Z,21.35
2016-10-16T01:11:17.256Z,21.37
2016-10-16T01:11:57.834Z,21.42
2016-10-16T01:12:38.411Z,21.34
2016-10-16T01:13:18.991Z,21.38
2016-10-16T01:13:59.575Z,21.43
2016-10-16T01:14:40.160Z,21.4
2016-10-16T01:15:20.738Z,21.37
2016-10-16T01:16:01.321Z,21.44
2016-10-16T01:16:41.905Z,21.35
2016-10-16T01:17:22.482Z,21.32
2016-10-16T01:18:03.067Z,21.37
2016-10-16T01:18:43.651Z,21.4
2016-10-16T01:19:24.230Z,21.43
2016-10-16T01:20:04.807Z,21.38
2016-10-16T01:20:45.394Z,21.37
2016-10-16T01:21:25.959Z,21.38
2016-10-16T01:22:06.544Z,21.31
2016-10-16T01:22:47.129Z,21.46
2016-10-16T01:23:27.712Z,21.37
2016-10-16T01:24:08.297Z,21.31
2016-10-16T01:24:48.866Z,21.34
2016-10-16T01:25:29.451Z,21.42
2016-10-16T01:26:10.032Z,21.37
2016-10-16T01:26:50.613Z,21.31
2016-10-16T01:27:31.197Z,21.25
2016-10-16T01:28:11.786Z,21.42
2016-10-16T01:28:52.362Z,21.31
2016-10-16T01:29:32.944Z,21.37
2016-10-16T01:30:13.532Z,21.37
2016-10-16T01:30:54.115Z,21.34
2016-10-16T01:31:34.693Z,21.35
2016-10-16T01:32:15.276Z,21.29
2016-10-16T01:32:55.858Z,21.28
2016-10-16T01:33:36.424Z,21.27
2016-10-16T01:34:17.009Z,21.31
2016-10-16T01:34:57.589Z,21.28
2016-10-16T01:35:38.171Z,21.34
2016-10-16T01:36:18.745Z,21.31
2016-10-16T01:36:59.337Z,21.32
2016-10-16T01:37:39.919Z,21.35
2016-10-16T01:38:20.499Z,21.27
2016-10-16T01:39:01.084Z,21.31
2016-10-16T01:39:41.666Z,21.27
2016-10-16T01:40:22.247Z,21.28
2016-10-16T01:41:02.826Z,21.37
2016-10-16T01:41:43.409Z,21.31
2016-10-16T01:42:23.991Z,21.17
2016-10-16T01:43:04.577Z,21.21
2016-10-16T01:43:45.157Z,21.14
2016-10-16T01:44:25.739Z,21.29
2016-10-16T01:45:06.325Z,21.21
2016-10-16T01:45:46.906Z,21.21
2016-10-16T01:46:27.488Z,21.22
2016-10-16T01:47:08.069Z,21.16
2016-10-16T01:47:48.645Z,21.19
2016-10-16T01:48:29.226Z,21.19
2016-10-16T01:49:09.801Z,21.22
2016-10-16T01:49:50.385Z,21.22
2016-10-16T01:50:30.966Z,21.22
2016-10-16T01:51:11.543Z,21.21
2016-10-16T01:51:52.133Z,21.14
2016-10-16T01:52:32.723Z,21.21
2016-10-16T01:53:13.303Z,21.16
2016-10-16T01:53:53.887Z,21.17
2016-10-16T01:54:34.474Z,21.17
2016-10-16T01:55:15.052Z,21.19
2016-10-16T01:55:55.632Z,21.22
2016-10-16T01:56:36.214Z,21.21
2016-10-16T01:57:16.794Z,21.16
2016-10-16T01:57:57.373Z,21.21
2016-10-16T01:58:37.958Z,21.22
2016-10-16T01:59:18.782Z,21.19
2016-10-16T01:59:59.366Z,21.19
2016-10-16T02:00:39.949Z,21.19
2016-10-16T02:01:20.532Z,21.22
2016-10-16T02:02:01.112Z,21.22
2016-10-16T02:02:41.697Z,21.13
2016-10-16T02:03:22.277Z,21.24
2016-10-16T02:04:02.858Z,21.19
2016-10-16T02:04:43.435Z,21.25
2016-10-16T02:05:24.017Z,21.22
2016-10-16T02:06:04.595Z,21.1
2016-10-16T02:06:45.183Z,21.25
2016-10-16T02:07:25.765Z,21.25
2016-10-16T02:08:06.348Z,21.24
2016-10-16T02:08:46.934Z,21.16
2016-10-16T02:09:27.513Z,21.24
2016-10-16T02:10:08.095Z,21.22
2016-10-16T02:10:48.678Z,21.21
2016-10-16T02:11:29.257Z,21.17
2016-10-16T02:12:09.840Z,21.21
2016-10-16T02:12:50.421Z,21.13
2016-10-16T02:13:31.009Z,21.21
2016-10-16T02:14:11.587Z,21.19
2016-10-16T02:14:52.171Z,21.17
2016-10-16T02:15:32.749Z,21.19
2016-10-16T02:16:13.316Z,21.17
2016-10-16T02:16:53.900Z,21.22
2016-10-16T02:17:34.484Z,21.21
2016-10-16T02:18:15.065Z,21.17
2016-10-16T02:18:55.645Z,21.19
2016-10-16T02:19:36.227Z,21.12
2016-10-16T02:20:16.813Z,21.22
2016-10-16T02:20:57.398Z,21.17
2016-10-16T02:21:37.982Z,21.22
2016-10-16T02:22:18.559Z,21.16
2016-10-16T02:22:59.134Z,21.19
2016-10-16T02:23:39.719Z,21.16
2016-10-16T02:24:20.297Z,21.21
2016-10-16T02:25:00.876Z,21.19
2016-10-16T02:25:41.457Z,21.19
2016-10-16T02:26:22.038Z,21.16
2016-10-16T02:27:02.622Z,21.16
2016-10-16T02:27:43.212Z,21.19
2016-10-16T02:28:23.787Z,21.19
2016-10-16T02:29:04.370Z,21.19
2016-10-16T02:29:44.945Z,21.17
2016-10-16T02:30:25.525Z,21.19
2016-10-16T02:31:06.109Z,21.12
2016-10-16T02:31:46.692Z,21.19
2016-10-16T02:32:27.276Z,21.21
2016-10-16T02:33:07.859Z,21.19
2016-10-16T02:33:48.438Z,21.22
2016-10-16T02:34:29.020Z,21.17
2016-10-16T02:35:09.606Z,21.17
2016-10-16T02:35:50.192Z,21.27
2016-10-16T02:36:30.770Z,21.09
2016-10-16T02:37:11.354Z,21.29
2016-10-16T02:37:51.935Z,21.19
2016-10-16T02:38:32.515Z,21.17
2016-10-16T02:39:13.093Z,21.16
2016-10-16T02:39:53.681Z,21.16
2016-10-16T02:40:34.261Z,21.16
2016-10-16T02:41:14.842Z,21.17
2016-10-16T02:41:55.424Z,21.13
2016-10-16T02:42:36.009Z,21.21
2016-10-16T02:43:16.591Z,21.21
2016-10-16T02:43:57.172Z,21.14
2016-10-16T02:44:37.754Z,21.09
2016-10-16T02:45:18.341Z,21.16
2016-10-16T02:45:58.923Z,21.19
2016-10-16T02:46:39.508Z,21.14
2016-10-16T02:47:20.090Z,21.19
2016-10-16T02:48:00.798Z,21.13
2016-10-16T02:48:41.259Z,21.13
2016-10-16T02:49:21.845Z,21.19
2016-10-16T02:50:02.425Z,21.14
2016-10-16T02:50:43.006Z,21.19
2016-10-16T02:51:23.588Z,21.06
2016-10-16T02:52:04.172Z,21.16
2016-10-16T02:52:44.754Z,21.13
2016-10-16T02:53:25.338Z,21.13
2016-10-16T02:54:05.913Z,21.16
2016-10-16T02:54:46.496Z,21.21
2016-10-16T02:55:27.077Z,21.12
2016-10-16T02:56:07.654Z,21.13
2016-10-16T02:56:48.219Z,21.14
2016-10-16T02:57:28.798Z,21.17
2016-10-16T02:58:09.380Z,21.14
2016-10-16T02:58:49.949Z,21.14
2016-10-16T02:59:30.534Z,21.14
2016-10-16T03:00:11.114Z,21.16
2016-10-16T03:00:51.691Z,20.98
2016-10-16T03:01:32.273Z,21.14
2016-10-16T03:02:12.853Z,21.01
2016-10-16T03:02:53.432Z,21.1
2016-10-16T03:03:34.011Z,21.01
2016-10-16T03:04:14.588Z,21.1
2016-10-16T03:04:55.164Z,21.16
2016-10-16T03:05:35.746Z,21.03
2016-10-16T03:06:16.329Z,21.01
2016-10-16T03:06:56.906Z,21.16
2016-10-16T03:07:37.487Z,21.09
2016-10-16T03:08:18.065Z,21.12
2016-10-16T03:08:58.641Z,21.12
2016-10-16T03:09:39.224Z,21.07
2016-10-16T03:10:19.807Z,21.01
2016-10-16T03:11:00.386Z,21.16
2016-10-16T03:11:40.965Z,21.04
2016-10-16T03:12:21.542Z,21.03
2016-10-16T03:13:02.125Z,21.06
2016-10-16T03:13:42.709Z,21.12
2016-10-16T03:14:23.292Z,21.12
2016-10-16T03:15:03.875Z,21.14
2016-10-16T03:15:44.459Z,21.01
2016-10-16T03:16:25.044Z,21.09
2016-10-16T03:17:05.627Z,21.1
2016-10-16T03:17:46.208Z,20.99
2016-10-16T03:18:26.787Z,21.14
2016-10-16T03:19:07.367Z,21.1
2016-10-16T03:19:47.950Z,21.09
2016-10-16T03:20:28.526Z,21.1
2016-10-16T03:21:09.104Z,21.09
2016-10-16T03:21:49.687Z,21.06
2016-10-16T03:22:30.262Z,21.06
2016-10-16T03:23:10.838Z,21.01
2016-10-16T03:23:51.423Z,21.12
2016-10-16T03:24:32.005Z,21.12
2016-10-16T03:25:12.588Z,21.1
2016-10-16T03:25:53.170Z,21.04
2016-10-16T03:26:33.753Z,21.12
2016-10-16T03:27:14.334Z,21.09
2016-10-16T03:27:54.917Z,21.09
2016-10-16T03:28:35.487Z,21.04
2016-10-16T03:29:16.074Z,20.95
2016-10-16T03:29:56.650Z,21.06
2016-10-16T03:30:37.232Z,21.13
2016-10-16T03:31:17.812Z,21.04
2016-10-16T03:31:58.399Z,21.07
2016-10-16T03:32:38.983Z,20.98
2016-10-16T03:33:19.565Z,21.04
2016-10-16T03:34:00.144Z,21.03
2016-10-16T03:34:40.722Z,21.06
2016-10-16T03:35:21.298Z,21.04
2016-10-16T03:36:01.880Z,21.06
2016-10-16T03:36:42.462Z,20.95
2016-10-16T03:37:23.041Z,20.99
2016-10-16T03:38:03.621Z,21.06
2016-10-16T03:38:44.199Z,21.04
2016-10-16T03:39:24.787Z,21.1
2016-10-16T03:40:05.367Z,21.04
2016-10-16T03:40:45.947Z,21.09
2016-10-16T03:41:26.529Z,21.07
2016-10-16T03:42:07.294Z,21.1
2016-10-16T03:42:48.058Z,21.06
2016-10-16T03:43:29.048Z,21.04
2016-10-16T03:44:09.989Z,21.1
2016-10-16T03:44:50.620Z,20.98
2016-10-16T03:45:31.393Z,21.07
2016-10-16T03:46:11.974Z,21.07
2016-10-16T03:46:52.859Z,21.04
2016-10-16T03:47:33.437Z,21.09
2016-10-16T03:48:14.127Z,21.09
2016-10-16T03:48:54.710Z,21.01
2016-10-16T03:49:35.290Z,21.1
2016-10-16T03:50:15.897Z,20.98
2016-10-16T03:50:56.718Z,21.01
2016-10-16T03:51:37.490Z,21.09
2016-10-16T03:52:18.205Z,21.03
2016-10-16T03:52:58.786Z,21.06
2016-10-16T03:53:39.370Z,21.07
2016-10-16T03:54:19.945Z,21.09
2016-10-16T03:55:01.062Z,21.03
2016-10-16T03:55:41.876Z,21.06
2016-10-16T03:56:22.561Z,21.06
2016-10-16T03:57:04.346Z,20.98
2016-10-16T03:57:45.155Z,21.07
2016-10-16T03:58:25.751Z,21.09
2016-10-16T03:59:06.667Z,20.99
2016-10-16T03:59:47.528Z,21.06
2016-10-16T04:00:28.319Z,21.03
2016-10-16T04:01:09.157Z,21.06
2016-10-16T04:01:49.816Z,21.06
2016-10-16T04:02:30.919Z,21.07
2016-10-16T04:03:11.721Z,21.06
2016-10-16T04:03:52.300Z,21.01
2016-10-16T04:04:33.163Z,21.07
2016-10-16T04:05:14.250Z,21.1
2016-10-16T04:05:55.121Z,21.12
2016-10-16T04:06:36.098Z,21.07
2016-10-16T04:07:16.681Z,21.06
2016-10-16T04:07:57.477Z,21.06
2016-10-16T04:08:38.327Z,21.06
2016-10-16T04:09:18.922Z,21.07
2016-10-16T04:09:59.610Z,21.03
2016-10-16T04:10:40.188Z,21.06
2016-10-16T04:11:20.772Z,20.98
2016-10-16T04:12:01.353Z,21.07
2016-10-16T04:12:41.925Z,21.07
2016-10-16T04:13:22.510Z,21.06
2016-10-16T04:14:03.080Z,20.98
2016-10-16T04:14:43.667Z,21.09
2016-10-16T04:15:24.246Z,21.06
2016-10-16T04:16:04.824Z,21.01
2016-10-16T04:16:45.409Z,20.99
2016-10-16T04:17:26.231Z,21.04
2016-10-16T04:18:06.815Z,21.01
2016-10-16T04:18:47.409Z,21.04
2016-10-16T04:19:28.014Z,20.99
2016-10-16T04:20:08.620Z,20.99
2016-10-16T04:20:49.245Z,21.06
2016-10-16T04:21:29.815Z,21.06
2016-10-16T04:22:10.411Z,21.07
2016-10-16T04:22:50.990Z,21.01
2016-10-16T04:23:31.570Z,21.1
2016-10-16T04:24:12.178Z,21.1
2016-10-16T04:24:52.760Z,21.01
2016-10-16T04:25:33.339Z,21.04
2016-10-16T04:26:13.989Z,21.03
2016-10-16T04:26:54.567Z,21.04
2016-10-16T04:27:35.147Z,21.04
2016-10-16T04:28:15.732Z,21.06
2016-10-16T04:28:56.347Z,21.04
2016-10-16T04:29:36.948Z,21.03
2016-10-16T04:30:17.537Z,21.04
2016-10-16T04:30:58.141Z,20.97
2016-10-16T04:31:38.711Z,21.03
2016-10-16T04:32:19.352Z,20.99
2016-10-16T04:32:59.945Z,20.95
2016-10-16T04:33:40.534Z,20.95
2016-10-16T04:34:21.155Z,21.03
2016-10-16T04:35:01.754Z,21.01
2016-10-16T04:35:42.349Z,20.97
2016-10-16T04:36:22.957Z,20.99
2016-10-16T04:37:03.553Z,20.98
2016-10-16T04:37:44.140Z,20.97
2016-10-16T04:38:24.724Z,21.03
2016-10-16T04:39:05.304Z,20.99
2016-10-16T04:39:45.887Z,20.99
2016-10-16T04:40:26.479Z,20.97
2016-10-16T04:41:07.109Z,21.03
2016-10-16T04:41:47.688Z,20.99
2016-10-16T04:42:28.318Z,20.98
2016-10-16T04:43:08.890Z,21.03
2016-10-16T04:43:49.467Z,21.06
2016-10-16T04:44:30.048Z,21.07
2016-10-16T04:45:10.624Z,21.03
2016-10-16T04:45:51.205Z,21.03
2016-10-16T04:46:31.786Z,21.03
2016-10-16T04:47:12.365Z,20.95
2016-10-16T04:47:52.944Z,20.97
2016-10-16T04:48:33.562Z,20.99
2016-10-16T04:49:14.140Z,21.03
2016-10-16T04:49:54.723Z,21.03
2016-10-16T04:50:35.307Z,20.97
2016-10-16T04:51:15.895Z,20.97
2016-10-16T04:51:56.472Z,20.95
2016-10-16T04:52:37.058Z,20.97
2016-10-16T04:53:17.635Z,20.97
2016-10-16T04:53:58.223Z,21.03
2016-10-16T04:54:38.799Z,20.95
2016-10-16T04:55:19.408Z,20.95
2016-10-16T04:55:59.993Z,21.04
2016-10-16T04:56:40.590Z,21.01
2016-10-16T04:57:21.171Z,21.03
2016-10-16T04:58:01.756Z,21.01
2016-10-16T04:58:42.328Z,20.98
2016-10-16T04:59:22.916Z,21.03
2016-10-16T05:00:03.551Z,20.95
2016-10-16T05:00:44.147Z,20.95
2016-10-16T05:01:24.722Z,20.99
2016-10-16T05:02:05.291Z,20.95
2016-10-16T05:02:45.941Z,20.95
2016-10-16T05:03:26.550Z,20.95
2016-10-16T05:04:07.223Z,20.99
2016-10-16T05:04:47.827Z,20.98
2016-10-16T05:05:28.412Z,21.03
2016-10-16T05:06:08.986Z,21.06
2016-10-16T05:06:49.570Z,20.94
2016-10-16T05:07:30.333Z,21.03
2016-10-16T05:08:10.917Z,20.97
2016-10-16T05:08:51.496Z,20.98
2016-10-16T05:09:32.074Z,20.94
2016-10-16T05:10:12.660Z,20.97
2016-10-16T05:10:53.249Z,21.01
2016-10-16T05:11:33.833Z,20.98
2016-10-16T05:12:14.404Z,20.97
2016-10-16T05:12:54.986Z,20.97
2016-10-16T05:13:35.567Z,20.97
2016-10-16T05:14:16.148Z,21.03
2016-10-16T05:14:56.727Z,20.94
2016-10-16T05:15:37.311Z,20.94
2016-10-16T05:16:17.885Z,20.95
2016-10-16T05:16:58.626Z,20.97
2016-10-16T05:17:39.339Z,20.97
2016-10-16T05:18:20.172Z,20.97
2016-10-16T05:19:00.759Z,20.98
2016-10-16T05:19:41.675Z,20.94
2016-10-16T05:20:22.495Z,20.97
2016-10-16T05:21:03.189Z,20.95
2016-10-16T05:21:43.983Z,20.95
2016-10-16T05:22:24.560Z,20.94
2016-10-16T05:23:05.139Z,20.95
2016-10-16T05:23:46.056Z,20.99
2016-10-16T05:24:26.633Z,20.94
2016-10-16T05:25:07.592Z,20.99
2016-10-16T05:25:48.286Z,21.07
2016-10-16T05:26:28.866Z,20.88
2016-10-16T05:27:09.934Z,20.99
2016-10-16T05:27:50.676Z,20.91
2016-10-16T05:28:31.396Z,20.98
2016-10-16T05:29:11.980Z,20.95
2016-10-16T05:29:52.562Z,21.01
2016-10-16T05:30:33.322Z,20.97
2016-10-16T05:31:14.059Z,20.98
2016-10-16T05:31:54.856Z,20.98
2016-10-16T05:32:35.540Z,20.94
2016-10-16T05:33:16.274Z,20.98
2016-10-16T05:33:57.107Z,21.03
2016-10-16T05:34:37.980Z,20.99
2016-10-16T05:35:18.618Z,20.98
2016-10-16T05:35:59.756Z,20.99
2016-10-16T05:36:40.324Z,20.88
2016-10-16T05:37:21.516Z,20.99
2016-10-16T05:38:02.132Z,20.99
2016-10-16T05:38:42.847Z,20.98
2016-10-16T05:39:23.760Z,20.98
2016-10-16T05:40:04.407Z,20.92
2016-10-16T05:40:44.992Z,20.95
2016-10-16T05:41:25.768Z,20.97
2016-10-16T05:42:06.596Z,20.95
2016-10-16T05:42:47.180Z,20.94
2016-10-16T05:43:28.169Z,21.01
2016-10-16T05:44:08.971Z,20.94
2016-10-16T05:44:49.546Z,20.94
2016-10-16T05:45:30.483Z,20.99
2016-10-16T05:46:11.409Z,20.99
2016-10-16T05:46:51.986Z,20.97
2016-10-16T05:47:32.850Z,20.99
2016-10-16T05:48:13.447Z,20.98
2016-10-16T05:48:54.019Z,20.98
2016-10-16T05:49:34.605Z,20.97
2016-10-16T05:50:15.184Z,21.06
2016-10-16T05:50:55.765Z,20.94
2016-10-16T05:51:36.348Z,20.95
2016-10-16T05:52:16.928Z,20.92
2016-10-16T05:52:57.513Z,20.94
2016-10-16T05:53:38.098Z,20.92
2016-10-16T05:54:18.679Z,20.97
2016-10-16T05:54:59.419Z,20.92
2016-10-16T05:55:40.019Z,20.95
2016-10-16T05:56:20.601Z,20.97
2016-10-16T05:57:01.180Z,20.94
2016-10-16T05:57:41.761Z,20.92
2016-10-16T05:58:22.366Z,20.99
2016-10-16T05:59:02.948Z,20.95
2016-10-16T05:59:43.527Z,20.91
2016-10-16T06:00:24.122Z,20.98
2016-10-16T06:01:04.705Z,20.97
2016-10-16T06:01:45.285Z,20.94
2016-10-16T06:02:25.875Z,20.92
2016-10-16T06:03:06.453Z,20.92
2016-10-16T06:03:47.037Z,20.98
2016-10-16T06:04:27.622Z,20.94
2016-10-16T06:05:08.196Z,20.91
2016-10-16T06:05:48.776Z,21.03
2016-10-16T06:06:29.360Z,20.99
2016-10-16T06:07:09.938Z,20.92
2016-10-16T06:07:50.526Z,20.98
2016-10-16T06:08:31.110Z,20.92
2016-10-16T06:09:11.692Z,20.92
2016-10-16T06:09:52.263Z,20.99
2016-10-16T06:10:32.837Z,21.06
2016-10-16T06:11:13.427Z,21.01
2016-10-16T06:11:54.010Z,21.01
2016-10-16T06:12:34.590Z,20.99
2016-10-16T06:13:15.167Z,20.97
2016-10-16T06:13:55.754Z,20.99
2016-10-16T06:14:36.334Z,20.95
2016-10-16T06:15:16.919Z,20.97
2016-10-16T06:15:57.499Z,20.94
2016-10-16T06:16:38.077Z,21.03
2016-10-16T06:17:18.657Z,20.97
2016-10-16T06:17:59.237Z,20.95
2016-10-16T06:18:39.825Z,20.99
2016-10-16T06:19:20.408Z,20.95
2016-10-16T06:20:00.992Z,20.98
2016-10-16T06:20:41.570Z,20.99
2016-10-16T06:21:22.152Z,20.91
2016-10-16T06:22:02.736Z,20.97
2016-10-16T06:22:43.318Z,20.92
2016-10-16T06:23:23.891Z,20.99
2016-10-16T06:24:04.471Z,20.95
2016-10-16T06:24:45.059Z,20.89
2016-10-16T06:25:25.641Z,20.97
2016-10-16T06:26:06.222Z,20.92
2016-10-16T06:26:46.850Z,21.03
2016-10-16T06:27:27.436Z,20.98
2016-10-16T06:28:08.000Z,20.85
2016-10-16T06:28:48.942Z,20.82
2016-10-16T06:29:30.007Z,20.72
2016-10-16T06:30:10.858Z,20.77
2016-10-16T06:30:51.665Z,20.55
2016-10-16T06:31:32.601Z,20.7
2016-10-16T06:32:13.393Z,20.57
2016-10-16T06:32:53.970Z,20.54
2016-10-16T06:33:35.151Z,20.51
2016-10-16T06:34:15.994Z,20.57
2016-10-16T06:34:57.133Z,20.43
2016-10-16T06:35:37.864Z,20.42
2016-10-16T06:36:18.441Z,20.36
2016-10-16T06:36:59.024Z,20.42
2016-10-16T06:37:39.667Z,20.2
2016-10-16T06:38:20.208Z,20.23
2016-10-16T06:39:01.131Z,20.21
2016-10-16T06:39:41.938Z,20.18
2016-10-16T06:40:22.580Z,20.17
2016-10-16T06:41:03.343Z,20.26
2016-10-16T06:41:44.114Z,20.1
2016-10-16T06:42:24.834Z,20.05
2016-10-16T06:43:05.653Z,20.05
2016-10-16T06:43:46.481Z,20.05
2016-10-16T06:44:27.271Z,20.03
2016-10-16T06:45:07.947Z,20.03
2016-10-16T06:45:48.870Z,19.96
2016-10-16T06:46:29.865Z,19.96
2016-10-16T06:47:10.601Z,19.92
2016-10-16T06:47:51.328Z,19.92
2016-10-16T06:48:32.187Z,19.94
2016-10-16T06:49:13.082Z,19.88
2016-10-16T06:49:53.638Z,19.91
2016-10-16T06:50:34.426Z,19.91
2016-10-16T06:51:15.247Z,19.88
2016-10-16T06:51:56.045Z,19.8
2016-10-16T06:52:36.606Z,19.8
2016-10-16T06:53:17.385Z,19.77
2016-10-16T06:53:58.024Z,19.78
2016-10-16T06:54:38.619Z,19.77
2016-10-16T06:55:19.445Z,19.81
2016-10-16T06:56:01.019Z,19.81
2016-10-16T06:56:41.770Z,19.81
2016-10-16T06:57:22.568Z,19.8
2016-10-16T06:58:03.414Z,19.77
2016-10-16T06:58:44.133Z,19.96
2016-10-16T06:59:24.718Z,20.05
2016-10-16T07:00:05.580Z,20.2
2016-10-16T07:00:46.440Z,20.43
2016-10-16T07:01:27.207Z,20.55
2016-10-16T07:02:08.122Z,20.73
2016-10-16T07:02:48.711Z,20.84
2016-10-16T07:03:29.267Z,20.95
2016-10-16T07:04:10.029Z,21.1
2016-10-16T07:04:50.615Z,21.29
2016-10-16T07:05:31.166Z,21.28
2016-10-16T07:06:11.729Z,21.52
2016-10-16T07:06:52.298Z,21.56
2016-10-16T07:07:32.846Z,21.77
2016-10-16T07:08:13.414Z,21.74
2016-10-16T07:08:53.954Z,21.91
2016-10-16T07:09:34.534Z,21.96
2016-10-16T07:10:15.116Z,22.06
2016-10-16T07:10:55.671Z,22.22
2016-10-16T07:11:36.248Z,22.33
2016-10-16T07:12:16.822Z,22.22
2016-10-16T07:12:57.417Z,22.18
2016-10-16T07:13:37.997Z,22.1
2016-10-16T07:14:18.578Z,22.02
2016-10-16T07:14:59.169Z,21.9
2016-10-16T07:15:39.704Z,21.88
2016-10-16T07:16:20.222Z,21.75
2016-10-16T07:17:00.773Z,21.72
2016-10-16T07:17:41.341Z,21.72
2016-10-16T07:18:21.998Z,21.72
2016-10-16T07:19:02.557Z,21.71
2016-10-16T07:19:43.131Z,21.75
2016-10-16T07:20:23.891Z,21.8
2016-10-16T07:21:04.461Z,21.69
2016-10-16T07:21:45.046Z,21.75
2016-10-16T07:22:25.632Z,21.8
2016-10-16T07:23:06.231Z,21.83
2016-10-16T07:23:46.903Z,21.96
2016-10-16T07:24:27.480Z,22.14
2016-10-16T07:25:08.055Z,22.3
2016-10-16T07:25:48.683Z,22.25
2016-10-16T07:26:29.652Z,22.45
2016-10-16T07:27:10.375Z,22.37
2016-10-16T07:27:51.207Z,22.24
2016-10-16T07:28:31.773Z,22.33
2016-10-16T07:29:12.540Z,22.3
2016-10-16T07:29:53.233Z,22.36
2016-10-16T07:30:34.150Z,22.36
2016-10-16T07:31:14.860Z,22.37
2016-10-16T07:31:55.457Z,22.49
2016-10-16T07:32:36.057Z,22.45
2016-10-16T07:33:16.714Z,22.39
2016-10-16T07:33:57.330Z,22.37
2016-10-16T07:34:38.252Z,22.39
2016-10-16T07:35:19.029Z,22.54
2016-10-16T07:36:00.080Z,22.64
2016-10-16T07:36:40.801Z,22.68
2016-10-16T07:37:21.655Z,22.9
2016-10-16T07:38:02.372Z,23.02
2016-10-16T07:38:43.036Z,23.19
2016-10-16T07:39:23.694Z,23.25
2016-10-16T07:40:04.351Z,23.04
2016-10-16T07:40:45.097Z,23.38
2016-10-16T07:41:25.934Z,23.43
2016-10-16T07:42:06.550Z,23.54
2016-10-16T07:42:47.287Z,23.51
2016-10-16T07:43:27.878Z,23.53
2016-10-16T07:44:08.460Z,23.43
2016-10-16T07:44:49.318Z,23.38
2016-10-16T07:45:29.901Z,23.17
2016-10-16T07:46:10.908Z,23.04
2016-10-16T07:46:51.597Z,23.07
2016-10-16T07:47:32.321Z,23.09
2016-10-16T07:48:12.881Z,23.04
2016-10-16T07:48:53.671Z,23.25
2016-10-16T07:49:34.452Z,23.42
2016-10-16T07:50:15.244Z,23.61
2016-10-16T07:50:56.533Z,23.61
2016-10-16T07:51:37.375Z,23.7
2016-10-16T07:52:18.223Z,23.87
2016-10-16T07:52:59.070Z,23.94
2016-10-16T07:53:40.741Z,24.03
2016-10-16T07:54:21.686Z,24.1
2016-10-16T07:55:02.332Z,24.09
2016-10-16T07:55:43.316Z,24.13
2016-10-16T07:56:23.918Z,24.03
2016-10-16T07:57:04.691Z,23.95
2016-10-16T07:57:45.266Z,23.79
2016-10-16T07:58:26.100Z,23.7
2016-10-16T07:59:06.676Z,23.55
2016-10-16T07:59:47.417Z,23.47
2016-10-16T08:00:27.996Z,23.46
2016-10-16T08:01:08.582Z,23.36
2016-10-16T08:01:49.175Z,23.2
2016-10-16T08:02:29.745Z,23.15
2016-10-16T08:03:10.580Z,23.1
2016-10-16T08:03:51.635Z,23.01
2016-10-16T08:04:32.219Z,22.98
2016-10-16T08:05:12.798Z,22.86
2016-10-16T08:05:53.734Z,22.76
2016-10-16T08:06:34.775Z,22.68
2016-10-16T08:07:15.380Z,22.73
2016-10-16T08:07:55.946Z,22.72
2016-10-16T08:08:36.491Z,22.72
2016-10-16T08:09:17.058Z,22.52
2016-10-16T08:09:57.919Z,22.49
2016-10-16T08:10:38.732Z,22.52
2016-10-16T08:11:19.366Z,22.47
2016-10-16T08:11:59.949Z,22.54
2016-10-16T08:12:40.517Z,22.54
2016-10-16T08:13:21.098Z,22.55
2016-10-16T08:14:02.179Z,22.47
2016-10-16T08:14:42.719Z,22.45
2016-10-16T08:15:23.295Z,22.43
2016-10-16T08:16:03.971Z,22.42
2016-10-16T08:16:44.600Z,22.37
2016-10-16T08:17:25.186Z,22.39
2016-10-16T08:18:05.766Z,22.43
2016-10-16T08:18:46.543Z,22.28
2016-10-16T08:19:27.169Z,22.39
2016-10-16T08:20:07.750Z,22.36
2016-10-16T08:20:48.595Z,22.39
2016-10-16T08:21:29.230Z,22.27
2016-10-16T08:22:09.804Z,22.39
2016-10-16T08:22:50.374Z,22.4
2016-10-16T08:23:31.356Z,22.4
2016-10-16T08:24:12.166Z,22.36
2016-10-16T08:24:52.935Z,22.37
2016-10-16T08:25:33.502Z,22.31
2016-10-16T08:26:14.183Z,22.37
2016-10-16T08:26:54.996Z,22.35
2016-10-16T08:27:35.566Z,22.4
2016-10-16T08:28:16.211Z,22.28
2016-10-16T08:28:56.794Z,22.39
2016-10-16T08:29:37.379Z,22.25
2016-10-16T08:30:18.073Z,22.36
2016-10-16T08:30:59.167Z,22.31
2016-10-16T08:31:39.966Z,22.36
2016-10-16T08:32:20.555Z,22.33
2016-10-16T08:33:01.739Z,22.3
2016-10-16T08:33:42.322Z,22.37
2016-10-16T08:34:22.905Z,22.28
2016-10-16T08:35:03.486Z,22.24
2016-10-16T08:35:44.076Z,22.27
2016-10-16T08:36:24.658Z,22.28
2016-10-16T08:37:05.240Z,22.28
2016-10-16T08:37:45.827Z,22.28
2016-10-16T08:38:26.413Z,22.22
2016-10-16T08:39:07.239Z,22.21
2016-10-16T08:39:48.112Z,22.21
2016-10-16T08:40:28.970Z,22.28
2016-10-16T08:41:09.555Z,22.25
2016-10-16T08:41:50.249Z,22.28
2016-10-16T08:42:30.817Z,22.25
2016-10-16T08:43:11.607Z,22.25
2016-10-16T08:43:52.398Z,22.3
2016-10-16T08:44:32.939Z,22.35